ソチ の空港の天気 - METARとTAF

ソチ空港 ( URSS / AER ) - ロシア ソチ
飛行場実況気象(Metar)
観測時間09/25 06:30 MSK (09/25 03:30 UTC)
風向・風速北東 7m/s
視程10km以上
天気現象
なし
気温19℃
湿度68%
気圧1010hPa
METARURSS 250330Z 04007MPS 9999 NSC 19/13 Q1010 WS ALL RWY R02/090070 R06/090070 NOSIG RMK R06/08005MPS QFE756
過去の天気等 Google飛行場航空写真 Wunderground天気予報

過去48時間のMETAR

飛行場予報(TAF)
発表時間: 9/25 04:56 MSK (9/25 01:56 UTC)
予報対象時間: 25日6時 MSK ~ 26日6時 MSK
風向・風速北東 6m/s
視程10km以上
なし
25日10時 MSK から
風向・風速南 6m/s 瞬間風速 11m/s
視程10km以上
少しの積乱雲 雲底高度 910m
25日10時 MSK ~ 25日15時 MSK に一時的に
風向・風速南西 6m/s 瞬間風速 11m/s
25日15時 MSK から
風向・風速西北西 9m/s 瞬間風速 15m/s
視程10km以上
全天の4割程度の雲 雲底高度 460m
全天の8割程度の積乱雲 雲底高度 610m
全天を覆う雲 雲底高度 3050m
25日15時 MSK ~ 26日6時 MSK に一時的に
風向・風速不定 10m/s 瞬間風速 18m/s
視程3100m
天気現象弱い雷雨
TAF URSS 250156Z 2503/2603 05006MPS 9999 NSC
FM250700 18006G11MPS 9999 FEW030CB
TEMPO 2507/2512 23006G11MPS
FM251200 29009G15MPS 9999 SCT015 BKN020CB OVC100
TEMPO 2512/2603 VRB10G18MPS 3100 -TSRA